createdAt,value
2023-04-26T00:03:04.566Z,99430.02
2023-04-26T00:08:09.401Z,99436.25
2023-04-26T00:13:12.512Z,99433.66
2023-04-26T00:18:18.291Z,99435.39
2023-04-26T00:23:21.241Z,99438.16
2023-04-26T00:28:24.253Z,99430.24
2023-04-26T00:33:29.212Z,99431.17
2023-04-26T00:38:34.160Z,99431.70
2023-04-26T00:43:37.104Z,99428.68
2023-04-26T00:48:40.543Z,99432.83
2023-04-26T00:53:43.685Z,99437.36
2023-04-26T00:58:47.477Z,99439.98
2023-04-26T01:03:50.386Z,99439.30
2023-04-26T01:08:57.183Z,99435.95
2023-04-26T01:14:00.078Z,99444.95
2023-04-26T01:19:13.494Z,99445.52
2023-04-26T01:24:16.689Z,99439.89
2023-04-26T01:29:21.441Z,99439.54
2023-04-26T01:34:24.380Z,99440.98
2023-04-26T01:39:28.111Z,99444.04
2023-04-26T01:44:31.424Z,99449.95
2023-04-26T01:49:34.590Z,99448.70
2023-04-26T01:54:37.446Z,99441.43
2023-04-26T01:59:40.368Z,99444.30
2023-04-26T02:04:43.258Z,99443.63
2023-04-26T02:09:46.680Z,99440.71
2023-04-26T02:14:49.506Z,99439.98
2023-04-26T02:19:52.477Z,99441.20
2023-04-26T02:24:55.451Z,99445.44
2023-04-26T02:29:58.287Z,99443.12
2023-04-26T02:35:01.633Z,99442.98
2023-04-26T02:40:05.982Z,99444.50
2023-04-26T02:45:08.973Z,99436.70
2023-04-26T02:50:11.915Z,99429.63
2023-04-26T02:55:17.386Z,99437.82
2023-04-26T03:00:20.661Z,99440.65
2023-04-26T03:05:23.739Z,99444.14
2023-04-26T03:10:26.680Z,99445.05
2023-04-26T03:15:29.470Z,99449.23
2023-04-26T03:20:32.323Z,99449.40
2023-04-26T03:25:35.103Z,99449.41
2023-04-26T03:30:38.918Z,99450.75
2023-04-26T03:35:41.837Z,99452.08
2023-04-26T03:40:44.660Z,99458.38
2023-04-26T03:45:50.168Z,99458.27
2023-04-26T03:50:53.694Z,99459.05
2023-04-26T03:55:56.643Z,99467.52
2023-04-26T04:00:59.495Z,99471.80
2023-04-26T04:06:02.785Z,99473.34
2023-04-26T04:11:06.319Z,99476.21
2023-04-26T04:16:10.353Z,99476.98
2023-04-26T04:21:13.158Z,99479.17
2023-04-26T04:26:16.299Z,99477.19
2023-04-26T04:31:19.235Z,99473.95
2023-04-26T04:36:22.116Z,99473.90
2023-04-26T04:41:26.575Z,99470.63
2023-04-26T04:46:29.463Z,99473.73
2023-04-26T04:51:32.246Z,99475.07
2023-04-26T04:56:35.000Z,99476.96
2023-04-26T05:01:38.834Z,99479.25
2023-04-26T05:06:42.618Z,99476.28
2023-04-26T05:11:46.439Z,99478.41
2023-04-26T05:16:49.531Z,99480.33
2023-04-26T05:21:53.012Z,99481.20
2023-04-26T05:27:00.616Z,99482.09
2023-04-26T05:32:06.113Z,99492.86
2023-04-26T05:37:09.576Z,99496.58
2023-04-26T05:42:13.271Z,99490.13
2023-04-26T05:47:17.134Z,99492.95
2023-04-26T05:52:20.328Z,99493.45
2023-04-26T05:57:30.351Z,99493.70
2023-04-26T06:02:33.811Z,99500.88
2023-04-26T06:07:38.230Z,99499.84
2023-04-26T06:12:41.426Z,99496.01
2023-04-26T06:17:44.997Z,99499.16
2023-04-26T06:22:48.118Z,99543.00
2023-04-26T06:27:50.948Z,99576.78
2023-04-26T06:32:55.185Z,99518.40
2023-04-26T06:37:58.366Z,99497.60
2023-04-26T06:43:01.942Z,99499.09
2023-04-26T06:48:05.310Z,99500.55
2023-04-26T06:53:08.406Z,99502.96
2023-04-26T06:58:12.509Z,99498.23
2023-04-26T07:03:15.601Z,99499.47
2023-04-26T07:08:19.317Z,99509.11
2023-04-26T07:13:22.129Z,99504.85
2023-04-26T07:18:24.978Z,99511.11
2023-04-26T07:23:29.655Z,99513.79
2023-04-26T07:28:32.842Z,99513.06
2023-04-26T07:33:35.786Z,99515.49
2023-04-26T07:38:48.921Z,99511.66
2023-04-26T07:43:52.227Z,99520.11
2023-04-26T07:48:55.256Z,99523.89
2023-04-26T07:53:58.395Z,99524.41
2023-04-26T07:59:02.564Z,99530.80
2023-04-26T08:04:09.706Z,99539.73
2023-04-26T08:09:13.302Z,99542.69
2023-04-26T08:14:17.944Z,99547.95
2023-04-26T08:19:24.173Z,99545.33
2023-04-26T08:24:30.152Z,99544.77
2023-04-26T08:29:33.386Z,99546.35
2023-04-26T08:34:43.509Z,99547.61
2023-04-26T08:39:53.528Z,99556.02
2023-04-26T08:45:01.802Z,99557.63
2023-04-26T08:50:06.387Z,99564.02
2023-04-26T08:55:13.002Z,99571.08
2023-04-26T09:00:16.848Z,99577.52
2023-04-26T09:05:27.329Z,99581.81
2023-04-26T09:10:32.236Z,99574.23
2023-04-26T09:15:35.777Z,99575.20
2023-04-26T09:20:38.914Z,99576.20
2023-04-26T09:25:42.832Z,99579.34
2023-04-26T09:30:45.683Z,99581.80
2023-04-26T09:35:49.052Z,99581.73
2023-04-26T09:40:52.570Z,99581.69
2023-04-26T09:45:58.901Z,99588.64
2023-04-26T09:51:04.754Z,99590.41
2023-04-26T09:56:13.245Z,99592.91
2023-04-26T10:01:19.205Z,99592.48
2023-04-26T10:06:22.547Z,99594.91
2023-04-26T10:11:27.790Z,99599.52
2023-04-26T10:16:31.356Z,99600.41
2023-04-26T10:21:39.260Z,99599.55
2023-04-26T10:26:54.514Z,99603.95
2023-04-26T10:32:10.808Z,99611.72
2023-04-26T10:37:16.961Z,99616.94
2023-04-26T10:42:25.140Z,99620.23
2023-04-26T10:47:31.926Z,99630.64
2023-04-26T10:52:36.532Z,99630.82
2023-04-26T10:57:52.969Z,99635.95
2023-04-26T11:03:00.017Z,99638.09
2023-04-26T11:08:16.159Z,99649.07
2023-04-26T11:13:20.652Z,99652.52
2023-04-26T11:18:23.560Z,99648.18
2023-04-26T11:23:29.067Z,99652.98
2023-04-26T11:28:34.613Z,99658.69
2023-04-26T11:33:37.982Z,99672.02
2023-04-26T11:38:42.117Z,99674.79
2023-04-26T11:43:48.028Z,99676.35
2023-04-26T11:48:52.304Z,99684.50
2023-04-26T11:53:55.515Z,99692.62
2023-04-26T11:59:00.250Z,99689.55
2023-04-26T12:04:10.839Z,99682.75
2023-04-26T12:09:13.971Z,99684.86
2023-04-26T12:14:16.972Z,99691.95
2023-04-26T12:19:24.007Z,99692.76
2023-04-26T12:24:34.600Z,99692.63
2023-04-26T12:29:37.558Z,99696.52
2023-04-26T12:34:40.434Z,99717.41
2023-04-26T12:39:44.585Z,99725.67
2023-04-26T12:44:47.526Z,99728.64
2023-04-26T12:49:50.371Z,99733.40
2023-04-26T12:54:53.276Z,99734.02
2023-04-26T12:59:56.669Z,99731.54
2023-04-26T13:05:05.123Z,99731.94
2023-04-26T13:10:12.878Z,99725.77
2023-04-26T13:15:17.777Z,99729.30
2023-04-26T13:20:23.703Z,99731.17
2023-04-26T13:25:31.797Z,99740.14
2023-04-26T13:30:36.316Z,99735.23
2023-04-26T13:35:39.156Z,99739.77
2023-04-26T13:40:43.031Z,99740.77
2023-04-26T13:51:07.246Z,99745.16
2023-04-26T13:56:11.516Z,99746.44
2023-04-26T14:01:16.102Z,99746.85
2023-04-26T14:06:19.075Z,99747.77
2023-04-26T14:11:23.241Z,99756.13
2023-04-26T14:16:26.854Z,99767.30
2023-04-26T14:21:31.887Z,99771.11
2023-04-26T14:26:34.731Z,99771.61
2023-04-26T14:31:37.786Z,99775.32
2023-04-26T14:36:40.755Z,99778.84
2023-04-26T14:41:43.706Z,99782.79
2023-04-26T14:46:46.885Z,99787.83
2023-04-26T14:51:52.544Z,99788.52
2023-04-26T14:56:56.407Z,99786.91
2023-04-26T15:01:59.332Z,99792.05
2023-04-26T15:07:02.851Z,99795.75
2023-04-26T15:12:07.195Z,99799.08
2023-04-26T15:17:10.121Z,99803.55
2023-04-26T15:22:12.988Z,99812.39
2023-04-26T15:27:15.950Z,99812.30
2023-04-26T15:32:18.759Z,99812.36
2023-04-26T15:37:22.318Z,99815.30
2023-04-26T15:42:25.190Z,99813.98
2023-04-26T15:47:29.254Z,99809.53
2023-04-26T15:52:38.940Z,99812.64
2023-04-26T15:57:42.755Z,99823.34
2023-04-26T16:02:45.726Z,99830.94
2023-04-26T16:07:48.748Z,99829.00
2023-04-26T16:12:51.952Z,99834.86
2023-04-26T16:17:54.813Z,99832.77
2023-04-26T16:23:00.073Z,99841.91
2023-04-26T16:28:03.183Z,99843.29
2023-04-26T16:33:12.750Z,99845.38
2023-04-26T16:38:16.362Z,99851.22
2023-04-26T16:43:20.382Z,99860.02
2023-04-26T16:48:31.490Z,99868.04
2023-04-26T16:53:34.572Z,99874.16
2023-04-26T16:58:37.585Z,99871.39
2023-04-26T17:03:43.087Z,99881.48
2023-04-26T17:08:49.808Z,99882.78
2023-04-26T17:19:28.622Z,99896.95
2023-04-26T17:24:31.448Z,99897.72
2023-04-26T17:29:37.812Z,99904.92
2023-04-26T17:34:40.534Z,99912.07
2023-04-26T17:39:43.659Z,99915.25
2023-04-26T17:44:47.027Z,99923.98
2023-04-26T17:49:50.591Z,99930.77
2023-04-26T17:54:55.049Z,99932.36
2023-04-26T17:59:58.117Z,99938.42
2023-04-26T18:05:01.764Z,99941.58
2023-04-26T18:10:06.645Z,99951.10
2023-04-26T18:15:10.455Z,99952.64
2023-04-26T18:20:13.424Z,99958.52
2023-04-26T18:25:16.845Z,99963.69
2023-04-26T18:30:19.736Z,99969.33
2023-04-26T18:35:22.453Z,99973.58
2023-04-26T18:40:26.292Z,99978.55
2023-04-26T18:45:29.480Z,99989.06
2023-04-26T18:50:32.286Z,99992.97
2023-04-26T18:55:35.074Z,99996.16
2023-04-26T19:00:38.732Z,100008.01
2023-04-26T19:05:44.038Z,100010.36
2023-04-26T19:10:47.044Z,100013.90
2023-04-26T19:15:49.911Z,100016.23
2023-04-26T19:20:52.804Z,100020.63
2023-04-26T19:26:09.369Z,100024.67
2023-04-26T19:31:12.277Z,100025.08
2023-04-26T19:36:15.069Z,100024.25
2023-04-26T19:41:18.002Z,100024.66
2023-04-26T19:46:20.825Z,100027.79
2023-04-26T19:51:24.185Z,100027.81
2023-04-26T19:56:26.963Z,100032.48
2023-04-26T20:01:30.444Z,100035.60
2023-04-26T20:06:33.390Z,100032.67
2023-04-26T20:11:36.641Z,100037.35
2023-04-26T20:16:39.409Z,100034.07
2023-04-26T20:21:42.221Z,100036.66
2023-04-26T20:26:45.003Z,100037.05
2023-04-26T20:31:49.523Z,100040.84
2023-04-26T20:36:52.511Z,100042.22
2023-04-26T20:41:55.325Z,100048.08
2023-04-26T20:46:58.091Z,100052.21
2023-04-26T20:52:01.137Z,100049.63
2023-04-26T20:57:03.975Z,100056.86
2023-04-26T21:02:08.230Z,100056.00
2023-04-26T21:07:11.476Z,100057.72
2023-04-26T21:12:14.244Z,100062.20
2023-04-26T21:17:17.421Z,100062.89
2023-04-26T21:22:20.366Z,100066.17
2023-04-26T21:27:23.168Z,100067.89
2023-04-26T21:32:25.935Z,100071.14
2023-04-26T21:37:28.955Z,100075.44
2023-04-26T21:42:32.096Z,100076.45
2023-04-26T21:47:35.411Z,100082.13
2023-04-26T21:52:38.262Z,100087.61
2023-04-26T21:57:41.055Z,100089.67
2023-04-26T22:02:44.351Z,100094.13
2023-04-26T22:07:47.264Z,100096.34
2023-04-26T22:12:50.236Z,100099.41
2023-04-26T22:17:54.510Z,100104.36
2023-04-26T22:22:57.375Z,100103.15
2023-04-26T22:28:00.224Z,100103.11
2023-04-26T22:33:03.279Z,100106.34
2023-04-26T22:38:06.363Z,100112.19
2023-04-26T22:43:09.224Z,100112.83
2023-04-26T22:48:12.017Z,100115.88
2023-04-26T22:53:14.830Z,100119.30
2023-04-26T22:58:18.088Z,100119.30
2023-04-26T23:03:21.418Z,100121.36
2023-04-26T23:08:26.192Z,100118.95
2023-04-26T23:13:29.681Z,100125.63
2023-04-26T23:18:32.506Z,100128.70
2023-04-26T23:23:36.119Z,100130.06
2023-04-26T23:28:40.303Z,100124.89
2023-04-26T23:33:43.075Z,100128.48
2023-04-26T23:38:45.886Z,100122.27
2023-04-26T23:43:48.626Z,100126.59
2023-04-26T23:48:51.412Z,100127.85
2023-04-26T23:53:54.375Z,100127.03
2023-04-26T23:58:58.401Z,100132.21
